Time;durP1;ratioP1;P1;durP2;ratioP2;P2;SDS_P1;SDS_P2;PMS_P1;PMS_P2;Temp;Humidity;BMP_temperature;BMP_pressure;BME280_temperature;BME280_humidity;BME280_pressure;Samples;Min_cycle;Max_cycle;Signal;HPM_P1;HPM_P2
2024/03/16 00:00:17;;;;;;;4.93;4.50;;;12.80;1.00;;;;;;5068935;27;22596;-71
2024/03/16 00:02:44;;;;;;;5.73;5.27;;;12.70;1.00;;;;;;5058329;28;20452;-73
2024/03/16 00:05:11;;;;;;;5.00;4.60;;;12.70;1.00;;;;;;5048393;28;20467;-73
2024/03/16 00:07:38;;;;;;;4.60;4.20;;;12.60;1.00;;;;;;5051588;28;20445;-72
2024/03/16 00:10:08;;;;;;;5.27;4.77;;;12.60;1.00;;;;;;5068792;28;20876;-72
2024/03/16 00:12:35;;;;;;;5.20;4.27;;;12.60;1.00;;;;;;5059271;28;20537;-73
2024/03/16 00:15:02;;;;;;;5.13;4.70;;;12.60;1.00;;;;;;5060777;28;20475;-73
2024/03/16 00:17:29;;;;;;;4.87;4.40;;;12.60;1.00;;;;;;5059406;28;20460;-72
2024/03/16 00:19:57;;;;;;;4.23;3.90;;;12.60;1.00;;;;;;5066236;28;20481;-72
2024/03/16 00:22:24;;;;;;;4.23;3.93;;;12.60;1.00;;;;;;5065590;28;20460;-73
2024/03/16 00:24:51;;;;;;;5.50;4.77;;;12.60;1.00;;;;;;5068353;28;20992;-73
2024/03/16 00:27:18;;;;;;;6.90;4.23;;;12.70;1.00;;;;;;5066013;28;20455;-73
2024/03/16 00:29:45;;;;;;;4.47;4.17;;;12.80;1.00;;;;;;5057487;28;21051;-75
2024/03/16 00:32:12;;;;;;;4.47;4.07;;;12.80;1.00;;;;;;5062321;27;20457;-73
2024/03/16 00:34:39;;;;;;;4.60;4.20;;;12.90;1.00;;;;;;5070131;27;20527;-74
2024/03/16 00:37:06;;;;;;;4.83;4.43;;;12.90;1.00;;;;;;5056408;28;20490;-73
2024/03/16 00:39:34;;;;;;;4.50;4.20;;;12.90;1.00;;;;;;5064240;28;20560;-73
2024/03/16 00:42:02;;;;;;;4.70;4.30;;;12.90;1.00;;;;;;5052612;28;20470;-74
2024/03/16 00:44:30;;;;;;;4.53;4.13;;;12.90;1.00;;;;;;5066246;28;20484;-74
2024/03/16 00:46:57;;;;;;;5.53;5.03;;;12.90;1.00;;;;;;5066394;28;20456;-74
2024/03/16 00:49:24;;;;;;;5.73;4.80;;;12.90;1.00;;;;;;5067336;28;20465;-75
2024/03/16 00:51:51;;;;;;;4.60;4.17;;;12.80;1.00;;;;;;5074078;27;20540;-74
2024/03/16 00:54:18;;;;;;;5.33;4.83;;;12.70;1.00;;;;;;5055028;27;20456;-73
2024/03/16 00:56:46;;;;;;;4.43;4.03;;;12.70;1.00;;;;;;5052024;28;20557;-73
2024/03/16 00:59:13;;;;;;;4.50;4.20;;;12.70;1.00;;;;;;5047666;28;20456;-74
2024/03/16 01:01:40;;;;;;;5.60;4.50;;;12.70;1.00;;;;;;5047039;28;20537;-73
2024/03/16 01:04:07;;;;;;;4.40;4.00;;;12.70;1.00;;;;;;5057138;28;20483;-74
2024/03/16 01:06:37;;;;;;;5.13;4.63;;;12.70;1.00;;;;;;5054475;28;20486;-74
2024/03/16 01:09:04;;;;;;;4.60;4.20;;;12.70;1.00;;;;;;5069123;27;20469;-75
2024/03/16 01:11:32;;;;;;;5.20;4.80;;;12.70;1.00;;;;;;5065202;28;21054;-73
2024/03/16 01:13:59;;;;;;;4.27;3.97;;;12.80;1.00;;;;;;5059118;28;20492;-74
2024/03/16 01:16:26;;;;;;;4.90;4.53;;;12.80;1.00;;;;;;5069746;28;20457;-73
2024/03/16 01:18:53;;;;;;;4.77;4.37;;;12.80;1.00;;;;;;5066174;28;20958;-73
2024/03/16 01:21:20;;;;;;;5.30;4.80;;;12.80;1.00;;;;;;5069174;28;20467;-73
2024/03/16 01:23:47;;;;;;;4.53;4.13;;;12.70;1.00;;;;;;5071967;28;20985;-74
2024/03/16 01:26:14;;;;;;;5.17;4.67;;;12.60;1.00;;;;;;5061921;28;20573;-74
2024/03/16 01:28:41;;;;;;;4.63;4.23;;;12.50;1.00;;;;;;5060981;28;20462;-73
2024/03/16 01:31:08;;;;;;;4.10;3.80;;;12.40;1.00;;;;;;5076638;27;20607;-77
2024/03/16 01:33:35;;;;;;;4.10;3.70;;;12.40;1.00;;;;;;5072452;27;20645;-74
2024/03/16 01:36:03;;;;;;;4.23;3.93;;;12.40;1.00;;;;;;5065099;28;20980;-73
2024/03/16 01:38:30;;;;;;;4.00;3.60;;;12.40;1.00;;;;;;5049572;28;21591;-73
2024/03/16 01:40:57;;;;;;;4.53;4.13;;;12.50;1.00;;;;;;5075645;27;20465;-74
2024/03/16 01:43:24;;;;;;;4.20;3.80;;;12.60;1.00;;;;;;5057054;28;20490;-73
2024/03/16 01:45:51;;;;;;;3.40;3.10;;;12.60;1.00;;;;;;5077070;27;20979;-73
2024/03/16 01:48:19;;;;;;;3.73;3.43;;;12.70;1.00;;;;;;5075112;27;20572;-73
2024/03/16 01:50:46;;;;;;;3.77;3.17;;;12.60;1.00;;;;;;5065170;28;20464;-73
2024/03/16 01:53:12;;;;;;;3.53;3.17;;;12.70;1.00;;;;;;5075131;27;20578;-74
2024/03/16 01:55:40;;;;;;;3.53;3.23;;;12.70;1.00;;;;;;5067762;27;20957;-74
2024/03/16 01:58:07;;;;;;;3.47;3.17;;;12.70;1.00;;;;;;5065120;28;20522;-73
2024/03/16 02:00:34;;;;;;;3.83;3.47;;;12.80;1.00;;;;;;5070838;28;21009;-73
2024/03/16 02:03:02;;;;;;;2.77;2.57;;;12.80;1.00;;;;;;5064741;28;20542;-73
2024/03/16 02:05:29;;;;;;;3.50;3.20;;;12.80;1.00;;;;;;5060671;28;20868;-73
2024/03/16 02:07:56;;;;;;;3.30;2.97;;;12.70;1.00;;;;;;5056615;28;21069;-73
2024/03/16 02:10:23;;;;;;;4.47;2.80;;;12.80;1.00;;;;;;5060470;28;21333;-73
2024/03/16 02:12:50;;;;;;;3.77;3.47;;;12.80;1.00;;;;;;5068668;28;21320;-73
2024/03/16 02:15:18;;;;;;;4.00;3.60;;;12.90;1.00;;;;;;5064477;28;20446;-73
2024/03/16 02:17:46;;;;;;;4.40;3.50;;;12.80;1.00;;;;;;5062589;28;20477;-74
2024/03/16 02:20:15;;;;;;;3.83;3.53;;;12.80;1.00;;;;;;5065194;28;20464;-73
2024/03/16 02:22:42;;;;;;;4.10;3.80;;;12.80;1.00;;;;;;5065672;28;22107;-72
2024/03/16 02:25:10;;;;;;;3.27;2.97;;;12.80;1.00;;;;;;5070190;27;20448;-72
2024/03/16 02:27:37;;;;;;;3.47;3.17;;;12.90;1.00;;;;;;5066391;27;20654;-72
2024/03/16 02:30:05;;;;;;;3.97;3.67;;;12.80;1.00;;;;;;5055255;28;20458;-71
2024/03/16 02:32:32;;;;;;;4.37;4.07;;;12.80;1.00;;;;;;5059216;28;20496;-71
2024/03/16 02:34:59;;;;;;;4.20;3.73;;;12.80;1.00;;;;;;5057008;28;20900;-72
2024/03/16 02:37:26;;;;;;;3.83;3.33;;;12.80;1.00;;;;;;5070636;27;20475;-73
2024/03/16 02:39:53;;;;;;;4.63;4.20;;;12.70;1.00;;;;;;5053452;28;20551;-71
2024/03/16 02:42:20;;;;;;;5.00;4.00;;;12.70;1.00;;;;;;5049626;28;20551;-72
2024/03/16 02:44:47;;;;;;;3.73;3.43;;;12.70;1.00;;;;;;5067716;28;20502;-72
2024/03/16 02:47:15;;;;;;;4.00;3.63;;;12.60;1.00;;;;;;5067860;28;20547;-72
2024/03/16 02:49:42;;;;;;;4.07;3.70;;;12.60;1.00;;;;;;5068757;28;20470;-72
2024/03/16 02:52:10;;;;;;;3.53;3.23;;;12.60;1.00;;;;;;5052525;28;20603;-72
2024/03/16 02:54:38;;;;;;;4.93;3.53;;;12.60;1.00;;;;;;5069440;28;20467;-71
2024/03/16 02:57:05;;;;;;;4.03;3.73;;;12.60;1.00;;;;;;5066839;28;21033;-72
2024/03/16 02:59:32;;;;;;;3.70;2.97;;;12.60;1.00;;;;;;5067306;28;20536;-73
2024/03/16 03:01:59;;;;;;;4.30;3.90;;;12.60;1.00;;;;;;5062158;28;20474;-72
2024/03/16 03:04:26;;;;;;;3.87;3.57;;;12.60;1.00;;;;;;5061937;28;20483;-71
2024/03/16 03:06:54;;;;;;;3.57;3.30;;;12.50;1.00;;;;;;5071060;28;20973;-71
2024/03/16 03:09:21;;;;;;;3.20;2.90;;;12.50;1.00;;;;;;5064892;28;20455;-72
2024/03/16 03:11:48;;;;;;;3.17;2.97;;;12.50;1.00;;;;;;5063259;28;21674;-73
2024/03/16 03:14:16;;;;;;;3.27;2.97;;;12.50;1.00;;;;;;5065969;27;20535;-71
2024/03/16 03:16:44;;;;;;;3.50;3.20;;;12.40;1.00;;;;;;5053656;28;21060;-72
2024/03/16 03:19:12;;;;;;;3.27;3.00;;;12.40;1.00;;;;;;5067492;28;20521;-71
2024/03/16 03:21:39;;;;;;;3.47;3.17;;;12.40;1.00;;;;;;5075810;27;20471;-71
2024/03/16 03:24:07;;;;;;;3.93;3.60;;;12.40;1.00;;;;;;5069226;27;20451;-72
2024/03/16 03:26:34;;;;;;;5.13;3.00;;;12.50;1.00;;;;;;5071561;27;20454;-71
2024/03/16 03:29:01;;;;;;;3.57;3.23;;;12.40;1.00;;;;;;5057264;28;20541;-73
2024/03/16 03:31:28;;;;;;;3.23;3.03;;;12.40;1.00;;;;;;5057351;28;20555;-72
2024/03/16 03:33:55;;;;;;;3.43;3.10;;;12.40;1.00;;;;;;5061686;28;20551;-72
2024/03/16 03:36:22;;;;;;;3.77;3.37;;;12.40;1.00;;;;;;5051149;28;20457;-72
2024/03/16 03:38:49;;;;;;;3.23;2.93;;;12.40;1.00;;;;;;5049762;28;20461;-73
2024/03/16 03:41:18;;;;;;;3.63;3.33;;;12.50;1.00;;;;;;5049196;28;20568;-72
2024/03/16 03:43:47;;;;;;;3.10;2.80;;;12.50;1.00;;;;;;5060990;28;20453;-72
2024/03/16 03:46:28;;;;;;;4.30;3.30;;;12.60;1.00;;;;;;5070579;27;20550;-73
2024/03/16 03:49:10;;;;;;;3.27;2.97;;;12.50;1.00;;;;;;5057672;28;20464;-72
2024/03/16 03:51:37;;;;;;;3.60;3.30;;;12.60;1.00;;;;;;5053483;28;20468;-73
2024/03/16 03:54:06;;;;;;;2.83;2.63;;;12.60;1.00;;;;;;5050687;28;20521;-72
2024/03/16 03:56:33;;;;;;;3.40;3.10;;;12.50;1.00;;;;;;5051418;28;20550;-73
2024/03/16 03:59:00;;;;;;;4.60;3.17;;;12.50;1.00;;;;;;5052091;28;20463;-73
2024/03/16 04:01:27;;;;;;;3.20;3.00;;;12.50;1.00;;;;;;5052916;28;20485;-73
2024/03/16 04:03:54;;;;;;;3.73;3.27;;;12.60;1.00;;;;;;5061216;28;20467;-73
2024/03/16 04:06:21;;;;;;;2.70;2.50;;;12.60;1.00;;;;;;5052564;28;20489;-73
2024/03/16 04:08:48;;;;;;;3.53;2.63;;;12.60;1.00;;;;;;5052256;28;20443;-72
2024/03/16 04:11:15;;;;;;;4.73;3.50;;;12.60;1.00;;;;;;5058789;28;20563;-72
2024/03/16 04:13:42;;;;;;;4.30;3.43;;;12.60;1.00;;;;;;5058989;28;21369;-75
2024/03/16 04:16:12;;;;;;;3.20;2.63;;;12.60;1.00;;;;;;5051754;28;20840;-72
2024/03/16 04:18:39;;;;;;;3.17;2.80;;;12.50;1.00;;;;;;5065190;27;22159;-73
2024/03/16 04:21:06;;;;;;;3.53;3.23;;;12.50;1.00;;;;;;5089346;28;21032;-73
2024/03/16 04:23:33;;;;;;;3.40;3.10;;;12.60;1.00;;;;;;5051894;28;20449;-73
2024/03/16 04:26:00;;;;;;;4.23;2.70;;;12.60;1.00;;;;;;5055925;28;20460;-74
2024/03/16 04:28:27;;;;;;;3.33;2.80;;;12.60;1.00;;;;;;5052977;28;22664;-73
2024/03/16 04:30:54;;;;;;;3.40;3.10;;;12.50;1.00;;;;;;5054533;28;21001;-72
2024/03/16 04:33:21;;;;;;;3.80;2.67;;;12.50;1.00;;;;;;5053158;28;20452;-74
2024/03/16 04:35:48;;;;;;;3.30;2.50;;;12.50;1.00;;;;;;5067442;28;20595;-73
2024/03/16 04:38:17;;;;;;;3.37;2.93;;;12.50;1.00;;;;;;5071709;28;20532;-73
2024/03/16 04:40:44;;;;;;;5.90;4.10;;;12.50;1.00;;;;;;5073724;28;20478;-73
2024/03/16 04:43:11;;;;;;;3.40;2.77;;;12.40;1.00;;;;;;5068540;28;20547;-73
2024/03/16 04:45:38;;;;;;;3.10;2.80;;;12.30;1.00;;;;;;5069931;28;20551;-73
2024/03/16 04:48:05;;;;;;;2.60;2.40;;;12.30;1.00;;;;;;5074650;27;20458;-73
2024/03/16 04:50:33;;;;;;;3.30;2.67;;;12.10;1.00;;;;;;5077170;28;20525;-72
2024/03/16 04:53:00;;;;;;;4.03;2.80;;;12.00;1.00;;;;;;5073137;28;20452;-73
2024/03/16 04:55:27;;;;;;;3.20;2.90;;;11.90;1.00;;;;;;5078450;27;20477;-74
2024/03/16 04:57:57;;;;;;;3.23;2.70;;;11.90;1.00;;;;;;5067372;28;20459;-73
2024/03/16 05:00:24;;;;;;;2.87;2.67;;;11.90;1.00;;;;;;5071728;27;20477;-72
2024/03/16 05:02:51;;;;;;;3.00;2.80;;;11.80;1.00;;;;;;5068776;28;20566;-71
2024/03/16 05:05:18;;;;;;;3.20;2.67;;;11.70;1.00;;;;;;5062936;28;20439;-72
2024/03/16 05:07:45;;;;;;;4.07;2.90;;;11.70;1.00;;;;;;5075904;28;20494;-73
2024/03/16 05:10:12;;;;;;;2.93;2.60;;;11.60;1.00;;;;;;5069837;28;20510;-73
2024/03/16 05:12:39;;;;;;;3.50;3.20;;;11.60;1.00;;;;;;5068990;28;20491;-74
2024/03/16 05:15:07;;;;;;;4.40;2.90;;;11.50;1.00;;;;;;5070804;28;20467;-74
2024/03/16 05:17:35;;;;;;;4.77;2.90;;;11.50;1.00;;;;;;5074021;28;20502;-72
2024/03/16 05:20:03;;;;;;;2.47;2.27;;;11.50;1.00;;;;;;5068293;27;20483;-73
2024/03/16 05:22:30;;;;;;;2.93;2.73;;;11.60;1.00;;;;;;5074935;28;20481;-74
2024/03/16 05:24:57;;;;;;;4.00;2.90;;;11.60;1.00;;;;;;5069722;28;20470;-73
2024/03/16 05:27:24;;;;;;;2.87;2.20;;;11.60;1.00;;;;;;5069036;28;20593;-73
2024/03/16 05:29:51;;;;;;;2.80;2.60;;;11.50;1.00;;;;;;5071565;28;20536;-72
2024/03/16 05:32:18;;;;;;;3.47;2.60;;;11.60;1.00;;;;;;5072850;28;20520;-74
2024/03/16 05:34:45;;;;;;;4.20;3.23;;;11.50;1.00;;;;;;5056158;28;20462;-73
2024/03/16 05:37:13;;;;;;;3.60;2.60;;;11.40;1.00;;;;;;5059700;28;20478;-73
2024/03/16 05:39:40;;;;;;;4.33;3.40;;;11.40;1.00;;;;;;5055224;28;20602;-74
2024/03/16 05:42:11;;;;;;;2.57;2.30;;;11.40;1.00;;;;;;5068001;28;20430;-73
2024/03/16 05:44:38;;;;;;;3.63;2.80;;;11.30;1.00;;;;;;5079058;27;20461;-74
2024/03/16 05:47:06;;;;;;;2.37;2.10;;;11.30;1.00;;;;;;5060207;28;20467;-73
2024/03/16 05:49:33;;;;;;;5.70;3.80;;;11.30;1.00;;;;;;5075284;27;20494;-73
2024/03/16 05:52:00;;;;;;;2.50;2.30;;;11.40;1.00;;;;;;5057448;28;20546;-75
2024/03/16 05:54:31;;;;;;;2.90;2.00;;;11.40;1.00;;;;;;5073169;27;20545;-73
2024/03/16 05:56:58;;;;;;;3.30;2.50;;;11.50;1.00;;;;;;5060662;28;20418;-74
2024/03/16 05:59:25;;;;;;;2.50;2.37;;;11.50;1.00;;;;;;5073337;27;20463;-72
2024/03/16 06:01:52;;;;;;;3.33;2.47;;;11.60;1.00;;;;;;5073988;28;20553;-75
2024/03/16 06:04:19;;;;;;;7.53;2.63;;;11.60;1.00;;;;;;5062033;28;20512;-75
2024/03/16 06:06:47;;;;;;;2.37;2.17;;;11.70;1.00;;;;;;5086974;27;20447;-74
2024/03/16 06:09:14;;;;;;;3.00;2.30;;;11.70;1.00;;;;;;5074110;27;20505;-73
2024/03/16 06:11:41;;;;;;;2.60;2.33;;;11.80;1.00;;;;;;5072337;27;20456;-76
2024/03/16 06:14:09;;;;;;;2.53;2.27;;;11.80;1.00;;;;;;5074852;28;20501;-73
2024/03/16 06:16:37;;;;;;;4.37;2.50;;;11.90;1.00;;;;;;5074271;27;20831;-72
2024/03/16 06:19:04;;;;;;;2.97;2.20;;;11.80;1.00;;;;;;5074542;27;20470;-74
2024/03/16 06:21:32;;;;;;;4.67;1.90;;;11.80;1.00;;;;;;5072904;27;20441;-73
2024/03/16 06:23:59;;;;;;;2.53;2.30;;;11.70;1.00;;;;;;5070377;27;20473;-73
2024/03/16 06:26:28;;;;;;;3.03;1.93;;;11.60;1.00;;;;;;5077357;27;20453;-72
2024/03/16 06:29:04;;;;;;;3.13;2.67;;;11.60;1.00;;;;;;5075467;27;20466;-74
2024/03/16 06:31:32;;;;;;;4.00;2.97;;;11.60;1.00;;;;;;5073032;28;20549;-73
2024/03/16 06:33:59;;;;;;;2.50;2.10;;;11.70;1.00;;;;;;5083027;27;20575;-74
2024/03/16 06:36:26;;;;;;;2.03;1.80;;;11.90;1.00;;;;;;5073799;27;20814;-73
2024/03/16 06:38:54;;;;;;;3.33;2.10;;;12.00;1.00;;;;;;5084827;28;20486;-73
2024/03/16 06:41:21;;;;;;;3.07;2.67;;;12.10;1.00;;;;;;5071701;28;20443;-74
2024/03/16 06:43:48;;;;;;;2.50;2.10;;;12.20;1.00;;;;;;5050620;28;21644;-73
2024/03/16 06:46:15;;;;;;;5.30;2.30;;;12.40;1.00;;;;;;5078495;27;20968;-75
2024/03/16 06:48:42;;;;;;;3.93;2.30;;;12.40;1.00;;;;;;5062543;28;20589;-73
2024/03/16 06:51:09;;;;;;;2.23;2.00;;;12.50;1.00;;;;;;5068926;28;20472;-74
2024/03/16 06:53:36;;;;;;;4.03;2.10;;;12.50;1.00;;;;;;5063557;28;20544;-74
2024/03/16 06:56:06;;;;;;;3.97;2.10;;;12.50;1.00;;;;;;5069817;27;20483;-74
2024/03/16 06:58:33;;;;;;;3.20;1.60;;;12.50;1.00;;;;;;5067459;28;21318;-74
2024/03/16 07:01:00;;;;;;;2.00;1.80;;;12.50;1.00;;;;;;5065653;28;20456;-73
2024/03/16 07:03:27;;;;;;;4.43;2.20;;;12.50;1.00;;;;;;5063620;28;21334;-74
2024/03/16 07:05:54;;;;;;;7.07;4.87;;;12.50;1.00;;;;;;5067810;28;20496;-74
2024/03/16 07:08:21;;;;;;;4.63;2.13;;;12.50;1.00;;;;;;5069577;27;21026;-71
2024/03/16 07:10:49;;;;;;;2.13;1.90;;;12.50;1.00;;;;;;5057394;28;20504;-75
2024/03/16 07:13:15;;;;;;;5.40;2.07;;;12.50;1.00;;;;;;5057963;28;20452;-73
2024/03/16 07:15:43;;;;;;;5.03;2.07;;;12.50;1.00;;;;;;5068513;28;20476;-73
2024/03/16 07:18:10;;;;;;;4.27;2.40;;;12.60;1.00;;;;;;5065477;28;21864;-73
2024/03/16 07:20:37;;;;;;;4.37;2.03;;;12.70;1.00;;;;;;5069992;28;20520;-74
2024/03/16 07:23:04;;;;;;;6.43;2.43;;;12.70;1.00;;;;;;5066540;27;20491;-74
2024/03/16 07:25:31;;;;;;;2.27;2.07;;;12.70;1.00;;;;;;5049417;28;20543;-74
2024/03/16 07:27:58;;;;;;;3.23;2.07;;;12.70;1.00;;;;;;5064002;27;20500;-74
2024/03/16 07:30:25;;;;;;;2.50;2.07;;;12.60;1.00;;;;;;5061318;27;20452;-75
2024/03/16 07:32:52;;;;;;;2.30;1.80;;;12.60;1.00;;;;;;5065512;28;20464;-77
2024/03/16 07:35:19;;;;;;;3.37;3.17;;;12.50;1.00;;;;;;5062086;28;20455;-73
2024/03/16 07:37:47;;;;;;;2.23;1.87;;;12.60;1.00;;;;;;5069251;27;20553;-74
2024/03/16 07:40:14;;;;;;;3.43;2.80;;;12.50;1.00;;;;;;5065444;28;20585;-73
2024/03/16 07:42:45;;;;;;;3.57;2.13;;;12.50;1.00;;;;;;5068445;27;20903;-73
2024/03/16 07:45:12;;;;;;;3.43;3.13;;;12.60;1.00;;;;;;5065732;28;20472;-74
2024/03/16 07:47:39;;;;;;;2.33;1.90;;;12.60;1.00;;;;;;5066967;28;20480;-76
2024/03/16 07:50:07;;;;;;;3.50;1.70;;;12.60;1.00;;;;;;5049290;28;20480;-74
2024/03/16 07:52:34;;;;;;;3.40;1.90;;;12.70;1.00;;;;;;5070422;28;20462;-73
2024/03/16 07:55:01;;;;;;;2.60;2.00;;;12.60;1.00;;;;;;5061623;28;20828;-74
2024/03/16 07:57:28;;;;;;;4.47;2.57;;;12.60;1.00;;;;;;5057064;27;20485;-71
2024/03/16 07:59:55;;;;;;;3.07;2.17;;;12.70;1.00;;;;;;5057784;28;20472;-74
2024/03/16 08:02:22;;;;;;;3.10;2.30;;;12.60;1.00;;;;;;5052006;28;20474;-75
2024/03/16 08:04:51;;;;;;;3.23;2.17;;;12.60;1.00;;;;;;5063369;27;20451;-77
2024/03/16 08:07:17;;;;;;;3.80;2.37;;;12.70;1.00;;;;;;5073132;27;20472;-73
2024/03/16 08:09:44;;;;;;;4.57;3.10;;;12.80;1.00;;;;;;5074548;27;20546;-69
2024/03/16 08:12:11;;;;;;;4.23;1.90;;;12.90;1.00;;;;;;5071456;27;20497;-70
2024/03/16 08:14:40;;;;;;;7.07;2.23;;;12.90;1.00;;;;;;5064512;28;21289;-70
2024/03/16 08:17:07;;;;;;;3.70;1.90;;;12.90;1.00;;;;;;5065261;28;21077;-70
2024/03/16 08:19:36;;;;;;;3.37;1.90;;;13.00;1.00;;;;;;5080356;28;20520;-69
2024/03/16 08:22:04;;;;;;;5.33;1.80;;;13.10;1.00;;;;;;5074442;27;20464;-76
2024/03/16 08:24:32;;;;;;;2.50;2.20;;;13.20;1.00;;;;;;5052949;28;20469;-70
2024/03/16 08:26:59;;;;;;;6.33;1.90;;;13.20;1.00;;;;;;5065522;27;20562;-71
2024/03/16 08:29:26;;;;;;;5.20;2.20;;;13.30;1.00;;;;;;5064935;28;20556;-72
2024/03/16 08:31:55;;;;;;;2.43;1.70;;;13.20;1.00;;;;;;5060494;27;20841;-71
2024/03/16 08:34:22;;;;;;;3.97;1.80;;;13.30;1.00;;;;;;5067554;28;20460;-72
2024/03/16 08:36:49;;;;;;;4.87;2.20;;;13.40;1.00;;;;;;5066579;28;20546;-70
2024/03/16 08:39:16;;;;;;;3.33;1.50;;;13.40;1.00;;;;;;5066139;28;20474;-72
2024/03/16 08:41:44;;;;;;;3.50;1.63;;;13.30;1.00;;;;;;5066466;28;20457;-71
2024/03/16 08:44:12;;;;;;;5.50;2.53;;;13.20;1.00;;;;;;5066587;28;20461;-72
2024/03/16 08:46:39;;;;;;;2.13;1.93;;;13.30;1.00;;;;;;5068734;28;20497;-72
2024/03/16 08:49:07;;;;;;;3.63;2.03;;;13.20;1.00;;;;;;5067523;28;20446;-72
2024/03/16 08:51:34;;;;;;;4.13;1.77;;;13.30;1.00;;;;;;5062025;28;20552;-70
2024/03/16 08:54:01;;;;;;;2.67;2.20;;;13.20;1.00;;;;;;5061727;28;20456;-71
2024/03/16 08:56:29;;;;;;;6.20;2.00;;;13.20;1.00;;;;;;5064601;28;20555;-76
2024/03/16 08:58:57;;;;;;;3.57;1.80;;;13.20;1.00;;;;;;5066831;28;20957;-75
2024/03/16 09:01:24;;;;;;;3.00;2.03;;;13.40;1.00;;;;;;5062684;28;20451;-71
2024/03/16 09:03:51;;;;;;;2.30;1.53;;;13.50;1.00;;;;;;5053422;28;20464;-72
2024/03/16 09:06:18;;;;;;;3.17;1.70;;;13.60;1.00;;;;;;5065393;28;20510;-71
2024/03/16 09:08:45;;;;;;;4.90;2.00;;;13.90;1.00;;;;;;5067457;28;21038;-70
2024/03/16 09:11:13;;;;;;;6.73;1.87;;;14.00;1.00;;;;;;5057591;28;20515;-72
2024/03/16 09:13:40;;;;;;;6.83;2.10;;;13.90;1.00;;;;;;5070168;27;20471;-70
2024/03/16 09:16:07;;;;;;;4.10;1.90;;;13.80;1.00;;;;;;5065722;28;20507;-71
2024/03/16 09:18:35;;;;;;;1.57;1.47;;;13.90;1.00;;;;;;5067003;28;20456;-70
2024/03/16 09:21:02;;;;;;;4.10;2.10;;;13.80;1.00;;;;;;5067322;28;20531;-74
2024/03/16 09:23:29;;;;;;;7.40;2.77;;;14.00;1.00;;;;;;5075694;28;21208;-73
2024/03/16 09:25:57;;;;;;;2.93;2.53;;;14.20;1.00;;;;;;5060371;28;20473;-73
2024/03/16 09:28:24;;;;;;;3.13;1.90;;;14.40;1.00;;;;;;5074044;28;20555;-76
2024/03/16 09:30:51;;;;;;;2.20;2.00;;;14.80;1.00;;;;;;5057233;28;20462;-76
2024/03/16 09:33:18;;;;;;;7.23;2.57;;;15.40;1.00;;;;;;5062113;27;20532;-76
2024/03/16 09:35:45;;;;;;;3.97;1.93;;;15.70;1.00;;;;;;5061666;28;20889;-76
2024/03/16 09:38:12;;;;;;;3.73;1.87;;;16.00;1.00;;;;;;5068312;27;20494;-76
2024/03/16 09:40:43;;;;;;;3.20;1.80;;;16.00;1.00;;;;;;5076236;27;20569;-76
2024/03/16 09:43:10;;;;;;;3.90;2.40;;;16.00;1.00;;;;;;5079143;28;20461;-75
2024/03/16 09:45:37;;;;;;;3.50;2.10;;;16.60;1.00;;;;;;5082057;27;20506;-74
2024/03/16 09:48:04;;;;;;;4.13;2.30;;;18.10;1.00;;;;;;5078049;28;20470;-77
2024/03/16 09:50:33;;;;;;;3.70;1.93;;;19.70;1.00;;;;;;5065478;28;20461;-76
2024/03/16 09:53:00;;;;;;;5.17;2.97;;;20.90;1.00;;;;;;5055864;28;20466;-73
2024/03/16 09:55:27;;;;;;;2.90;2.63;;;21.80;1.00;;;;;;5057522;28;20477;-75
2024/03/16 09:57:54;;;;;;;5.03;2.27;;;22.20;1.00;;;;;;5056935;28;20437;-77
2024/03/16 10:00:22;;;;;;;4.00;2.30;;;20.70;1.00;;;;;;5069890;28;20447;-77
2024/03/16 10:02:50;;;;;;;8.77;3.20;;;20.20;1.00;;;;;;5069474;28;20506;-77
2024/03/16 10:05:18;;;;;;;4.00;3.00;;;19.60;1.00;;;;;;5070146;28;20577;-75
2024/03/16 10:07:46;;;;;;;5.30;2.70;;;19.00;1.00;;;;;;5067243;28;20549;-76
2024/03/16 10:10:17;;;;;;;3.20;2.80;;;18.60;1.00;;;;;;5066559;28;20491;-77
2024/03/16 10:12:46;;;;;;;3.80;2.60;;;18.90;1.00;;;;;;5068372;28;20830;-74
2024/03/16 10:15:20;;;;;;;4.60;2.70;;;20.40;1.00;;;;;;5063848;28;20467;-76
2024/03/16 10:17:49;;;;;;;3.77;2.23;;;20.20;1.00;;;;;;5053076;28;21040;-76
2024/03/16 10:20:19;;;;;;;3.27;2.50;;;19.70;1.00;;;;;;5066790;28;20476;-72
2024/03/16 10:22:46;;;;;;;3.40;2.20;;;19.20;1.00;;;;;;5072475;28;20556;-77
2024/03/16 10:25:13;;;;;;;3.90;2.37;;;19.40;1.00;;;;;;5053530;28;21726;-74
2024/03/16 10:27:40;;;;;;;5.13;2.97;;;19.40;1.00;;;;;;5075167;28;20461;-77
2024/03/16 10:30:15;;;;;;;6.20;2.30;;;18.80;1.00;;;;;;5072470;27;20517;-74
2024/03/16 10:32:43;;;;;;;5.43;2.63;;;18.30;1.00;;;;;;5052744;28;20467;-74
2024/03/16 10:35:14;;;;;;;2.67;2.40;;;17.70;1.00;;;;;;5064460;28;20466;-74
2024/03/16 10:37:42;;;;;;;2.60;2.40;;;17.00;1.00;;;;;;5060880;28;20451;-74
2024/03/16 10:40:16;;;;;;;7.80;3.40;;;16.60;1.00;;;;;;5053245;28;20983;-73
2024/03/16 10:42:43;;;;;;;7.67;2.83;;;16.20;1.00;;;;;;5055134;28;20873;-74
2024/03/16 10:45:16;;;;;;;5.80;3.30;;;15.80;1.00;;;;;;5060720;28;20489;-74
2024/03/16 10:47:44;;;;;;;8.50;3.03;;;15.50;1.00;;;;;;5057701;28;20459;-74
2024/03/16 10:50:11;;;;;;;6.40;3.97;;;15.00;1.00;;;;;;5069720;27;20433;-75
2024/03/16 10:52:44;;;;;;;4.37;3.97;;;14.40;1.00;;;;;;5060833;28;20457;-75
2024/03/16 10:55:14;;;;;;;4.27;3.87;;;14.00;1.00;;;;;;5080040;28;20559;-77
2024/03/16 10:57:41;;;;;;;5.13;4.30;;;13.70;1.00;;;;;;5060893;28;20460;-75
2024/03/16 11:00:12;;;;;;;4.70;3.70;;;13.50;1.00;;;;;;5054196;28;20523;-72
2024/03/16 11:02:49;;;;;;;5.17;4.67;;;13.30;1.00;;;;;;5057556;28;20462;-74
2024/03/16 11:05:36;;;;;;;7.83;5.17;;;13.10;1.00;;;;;;5065105;28;21018;-74
2024/03/16 11:08:25;;;;;;;7.17;4.93;;;13.10;1.00;;;;;;5069567;28;20438;-74
2024/03/16 11:10:53;;;;;;;5.10;4.63;;;13.10;1.00;;;;;;5087253;28;20572;-74
2024/03/16 11:13:23;;;;;;;8.53;7.67;;;13.00;1.00;;;;;;5067639;28;20496;-74
2024/03/16 11:15:51;;;;;;;5.83;5.23;;;13.00;1.00;;;;;;5068447;28;20557;-75
2024/03/16 11:18:38;;;;;;;8.13;4.97;;;13.00;1.00;;;;;;5066770;28;20502;-74
2024/03/16 11:21:08;;;;;;;5.90;5.30;;;13.00;1.00;;;;;;5071377;28;20422;-75
2024/03/16 11:23:36;;;;;;;8.43;5.40;;;13.00;1.00;;;;;;5075124;27;21301;-74
2024/03/16 11:26:32;;;;;;;6.03;5.40;;;13.00;1.00;;;;;;5059599;28;20468;-73
2024/03/16 11:29:09;;;;;;;6.13;5.63;;;13.20;1.00;;;;;;5089396;27;20513;-74
2024/03/16 11:31:37;;;;;;;6.13;5.53;;;13.70;1.00;;;;;;5090791;27;20546;-74
2024/03/16 11:34:05;;;;;;;8.23;5.60;;;14.20;1.00;;;;;;5061028;28;20625;-75
2024/03/16 11:36:32;;;;;;;5.40;4.87;;;14.40;1.00;;;;;;5060953;28;20488;-74
2024/03/16 11:39:10;;;;;;;7.87;5.30;;;14.20;1.00;;;;;;5061056;28;20472;-74
2024/03/16 11:41:42;;;;;;;5.73;5.23;;;14.00;1.00;;;;;;5055717;28;20949;-71
2024/03/16 11:44:15;;;;;;;4.13;3.60;;;13.70;1.00;;;;;;5064624;28;20876;-71
2024/03/16 11:46:42;;;;;;;6.33;5.03;;;13.30;1.00;;;;;;5066632;28;20464;-71
2024/03/16 11:49:10;;;;;;;5.10;4.60;;;13.10;1.00;;;;;;5065217;28;20452;-75
2024/03/16 11:51:37;;;;;;;4.43;4.03;;;13.10;1.00;;;;;;5064807;28;20538;-71
2024/03/16 11:54:07;;;;;;;5.13;4.70;;;13.00;1.00;;;;;;5066316;28;20465;-73
2024/03/16 11:56:34;;;;;;;7.83;5.80;;;12.80;1.00;;;;;;5068863;28;20475;-72
2024/03/16 11:59:04;;;;;;;5.87;5.27;;;12.60;1.00;;;;;;5061652;28;20563;-72
2024/03/16 12:01:34;;;;;;;9.87;5.10;;;12.40;1.00;;;;;;5052256;28;20537;-74
2024/03/16 12:04:01;;;;;;;8.63;5.93;;;12.30;1.00;;;;;;5063555;28;20516;-74
2024/03/16 12:06:28;;;;;;;6.40;5.80;;;12.10;1.00;;;;;;5066859;28;20473;-72
2024/03/16 12:08:54;;;;;;;6.00;5.40;;;12.10;1.00;;;;;;5065542;28;20456;-73
2024/03/16 12:11:22;;;;;;;6.97;4.70;;;11.80;1.00;;;;;;5052690;28;20443;-71
2024/03/16 12:13:51;;;;;;;5.00;4.47;;;11.70;1.00;;;;;;5068780;28;20602;-72
2024/03/16 12:16:18;;;;;;;7.67;5.10;;;11.60;1.00;;;;;;5065099;28;20554;-74
2024/03/16 12:18:44;;;;;;;4.77;4.30;;;11.50;1.00;;;;;;5074755;27;20448;-72
2024/03/16 12:21:13;;;;;;;4.80;4.37;;;11.40;1.00;;;;;;5060939;27;20459;-71
2024/03/16 12:23:39;;;;;;;5.60;5.00;;;11.40;1.00;;;;;;5068222;27;20594;-73
2024/03/16 12:26:09;;;;;;;5.13;4.43;;;11.40;1.00;;;;;;5070337;27;20469;-72
2024/03/16 12:28:35;;;;;;;6.43;4.83;;;11.20;1.00;;;;;;5071280;27;20899;-72
2024/03/16 12:31:02;;;;;;;5.60;5.10;;;11.20;1.00;;;;;;5069075;27;20449;-73
2024/03/16 12:33:29;;;;;;;5.20;4.70;;;11.20;1.00;;;;;;5054383;28;20466;-71
2024/03/16 12:35:55;;;;;;;5.30;4.80;;;11.20;1.00;;;;;;5075659;28;20445;-71
2024/03/16 12:38:22;;;;;;;5.93;4.87;;;11.20;1.00;;;;;;5048149;28;20949;-69
2024/03/16 12:40:48;;;;;;;6.17;5.43;;;11.20;1.00;;;;;;5053125;28;20512;-72
2024/03/16 12:43:16;;;;;;;5.40;4.90;;;11.20;1.00;;;;;;5064875;28;20546;-71
2024/03/16 12:45:42;;;;;;;5.70;4.93;;;11.10;1.00;;;;;;5065188;28;20561;-72
2024/03/16 12:48:09;;;;;;;5.93;5.20;;;11.10;1.00;;;;;;5067697;28;20508;-73
2024/03/16 12:50:35;;;;;;;7.37;5.50;;;11.10;1.00;;;;;;5063228;28;20450;-72
2024/03/16 12:53:02;;;;;;;6.20;4.83;;;11.10;1.00;;;;;;5058655;28;20525;-75
2024/03/16 12:55:28;;;;;;;6.93;5.57;;;11.00;1.00;;;;;;5062842;28;20568;-69
2024/03/16 12:57:55;;;;;;;5.10;4.60;;;11.00;1.00;;;;;;5068699;28;20455;-68
2024/03/16 13:00:21;;;;;;;6.40;5.60;;;11.00;1.00;;;;;;5073199;27;20547;-68